sensor_id;sensor_type;location;lat;lon;timestamp;P1;durP1;ratioP1;P2;durP2;ratioP2
14768;SDS011;7476;49.404;11.152;2023-10-31T00:00:29;7.27;;;6.57;;
14768;SDS011;7476;49.404;11.152;2023-10-31T00:02:56;8.80;;;6.40;;
14768;SDS011;7476;49.404;11.152;2023-10-31T00:05:22;9.33;;;6.47;;
14768;SDS011;7476;49.404;11.152;2023-10-31T00:07:49;8.07;;;6.53;;
14768;SDS011;7476;49.404;11.152;2023-10-31T00:10:16;7.63;;;6.27;;
14768;SDS011;7476;49.404;11.152;2023-10-31T00:12:43;7.00;;;6.30;;
14768;SDS011;7476;49.404;11.152;2023-10-31T00:15:09;7.07;;;6.23;;
14768;SDS011;7476;49.404;11.152;2023-10-31T00:17:38;6.87;;;5.90;;
14768;SDS011;7476;49.404;11.152;2023-10-31T00:20:05;7.30;;;6.03;;
14768;SDS011;7476;49.404;11.152;2023-10-31T00:22:32;6.90;;;6.20;;
14768;SDS011;7476;49.404;11.152;2023-10-31T00:24:59;6.07;;;5.47;;
14768;SDS011;7476;49.404;11.152;2023-10-31T00:27:26;6.03;;;5.20;;
14768;SDS011;7476;49.404;11.152;2023-10-31T00:29:52;7.13;;;5.07;;
14768;SDS011;7476;49.404;11.152;2023-10-31T00:32:19;6.37;;;5.00;;
14768;SDS011;7476;49.404;11.152;2023-10-31T00:34:47;4.90;;;4.40;;
14768;SDS011;7476;49.404;11.152;2023-10-31T00:37:14;6.00;;;4.97;;
14768;SDS011;7476;49.404;11.152;2023-10-31T00:39:40;6.57;;;4.60;;
14768;SDS011;7476;49.404;11.152;2023-10-31T00:42:07;4.93;;;4.20;;
14768;SDS011;7476;49.404;11.152;2023-10-31T00:44:34;4.97;;;4.47;;
14768;SDS011;7476;49.404;11.152;2023-10-31T00:47:00;6.37;;;4.20;;
14768;SDS011;7476;49.404;11.152;2023-10-31T00:49:30;4.17;;;3.73;;
14768;SDS011;7476;49.404;11.152;2023-10-31T00:51:58;3.83;;;3.27;;
14768;SDS011;7476;49.404;11.152;2023-10-31T00:54:24;4.43;;;3.63;;
14768;SDS011;7476;49.404;11.152;2023-10-31T00:56:51;3.50;;;3.20;;
14768;SDS011;7476;49.404;11.152;2023-10-31T00:59:18;4.43;;;3.57;;
14768;SDS011;7476;49.404;11.152;2023-10-31T01:01:44;3.77;;;3.30;;
14768;SDS011;7476;49.404;11.152;2023-10-31T01:04:11;3.87;;;3.30;;
14768;SDS011;7476;49.404;11.152;2023-10-31T01:06:40;4.10;;;2.93;;
14768;SDS011;7476;49.404;11.152;2023-10-31T01:09:08;3.27;;;2.97;;
14768;SDS011;7476;49.404;11.152;2023-10-31T01:11:35;3.70;;;2.97;;
14768;SDS011;7476;49.404;11.152;2023-10-31T01:14:02;3.17;;;2.87;;
14768;SDS011;7476;49.404;11.152;2023-10-31T01:16:29;4.40;;;2.60;;
14768;SDS011;7476;49.404;11.152;2023-10-31T01:18:56;3.07;;;2.77;;
14768;SDS011;7476;49.404;11.152;2023-10-31T01:21:23;3.17;;;2.57;;
14768;SDS011;7476;49.404;11.152;2023-10-31T01:23:50;2.80;;;2.60;;
14768;SDS011;7476;49.404;11.152;2023-10-31T01:26:18;3.60;;;2.50;;
14768;SDS011;7476;49.404;11.152;2023-10-31T01:28:44;2.10;;;1.90;;
14768;SDS011;7476;49.404;11.152;2023-10-31T01:31:11;3.23;;;2.40;;
14768;SDS011;7476;49.404;11.152;2023-10-31T01:33:38;2.50;;;2.30;;
14768;SDS011;7476;49.404;11.152;2023-10-31T01:36:05;4.83;;;2.00;;
14768;SDS011;7476;49.404;11.152;2023-10-31T01:38:32;2.33;;;1.97;;
14768;SDS011;7476;49.404;11.152;2023-10-31T01:40:59;2.50;;;1.57;;
14768;SDS011;7476;49.404;11.152;2023-10-31T01:43:31;3.30;;;1.80;;
14768;SDS011;7476;49.404;11.152;2023-10-31T01:45:58;2.17;;;1.70;;
14768;SDS011;7476;49.404;11.152;2023-10-31T01:48:25;1.70;;;1.43;;
14768;SDS011;7476;49.404;11.152;2023-10-31T01:50:55;1.70;;;1.30;;
14768;SDS011;7476;49.404;11.152;2023-10-31T01:53:22;1.60;;;1.50;;
14768;SDS011;7476;49.404;11.152;2023-10-31T01:55:50;1.40;;;1.30;;
14768;SDS011;7476;49.404;11.152;2023-10-31T01:58:18;1.70;;;1.20;;
14768;SDS011;7476;49.404;11.152;2023-10-31T02:00:49;1.63;;;1.10;;
14768;SDS011;7476;49.404;11.152;2023-10-31T02:03:17;1.30;;;1.20;;
14768;SDS011;7476;49.404;11.152;2023-10-31T02:05:44;1.33;;;1.17;;
14768;SDS011;7476;49.404;11.152;2023-10-31T02:08:11;1.10;;;1.00;;
14768;SDS011;7476;49.404;11.152;2023-10-31T02:10:38;2.43;;;1.50;;
14768;SDS011;7476;49.404;11.152;2023-10-31T02:13:11;1.20;;;1.10;;
14768;SDS011;7476;49.404;11.152;2023-10-31T02:15:38;1.30;;;1.20;;
14768;SDS011;7476;49.404;11.152;2023-10-31T02:18:06;1.30;;;1.20;;
14768;SDS011;7476;49.404;11.152;2023-10-31T02:20:34;1.53;;;1.40;;
14768;SDS011;7476;49.404;11.152;2023-10-31T02:23:02;2.60;;;1.63;;
14768;SDS011;7476;49.404;11.152;2023-10-31T02:25:29;1.20;;;1.10;;
14768;SDS011;7476;49.404;11.152;2023-10-31T02:27:56;1.27;;;1.17;;
14768;SDS011;7476;49.404;11.152;2023-10-31T02:30:23;1.20;;;1.10;;
14768;SDS011;7476;49.404;11.152;2023-10-31T02:32:50;1.33;;;1.23;;
14768;SDS011;7476;49.404;11.152;2023-10-31T02:35:17;1.93;;;1.30;;
14768;SDS011;7476;49.404;11.152;2023-10-31T02:37:45;1.50;;;1.20;;
14768;SDS011;7476;49.404;11.152;2023-10-31T02:40:13;2.60;;;1.20;;
14768;SDS011;7476;49.404;11.152;2023-10-31T02:42:40;1.03;;;1.03;;
14768;SDS011;7476;49.404;11.152;2023-10-31T02:45:07;1.77;;;1.00;;
14768;SDS011;7476;49.404;11.152;2023-10-31T02:47:34;1.20;;;1.10;;
14768;SDS011;7476;49.404;11.152;2023-10-31T02:50:01;2.03;;;1.10;;
14768;SDS011;7476;49.404;11.152;2023-10-31T02:52:27;4.57;;;1.23;;
14768;SDS011;7476;49.404;11.152;2023-10-31T02:54:54;3.07;;;1.30;;
14768;SDS011;7476;49.404;11.152;2023-10-31T02:57:22;1.43;;;1.20;;
14768;SDS011;7476;49.404;11.152;2023-10-31T02:59:49;2.53;;;1.60;;
14768;SDS011;7476;49.404;11.152;2023-10-31T03:02:15;1.77;;;1.40;;
14768;SDS011;7476;49.404;11.152;2023-10-31T03:04:42;1.47;;;1.23;;
14768;SDS011;7476;49.404;11.152;2023-10-31T03:07:08;1.50;;;1.20;;
14768;SDS011;7476;49.404;11.152;2023-10-31T03:09:35;2.53;;;1.30;;
14768;SDS011;7476;49.404;11.152;2023-10-31T03:12:02;1.20;;;1.10;;
14768;SDS011;7476;49.404;11.152;2023-10-31T03:14:30;1.27;;;1.10;;
14768;SDS011;7476;49.404;11.152;2023-10-31T03:16:57;3.23;;;1.37;;
14768;SDS011;7476;49.404;11.152;2023-10-31T03:19:23;1.10;;;1.00;;
14768;SDS011;7476;49.404;11.152;2023-10-31T03:21:50;1.27;;;1.17;;
14768;SDS011;7476;49.404;11.152;2023-10-31T03:24:17;1.20;;;1.10;;
14768;SDS011;7476;49.404;11.152;2023-10-31T03:26:44;2.83;;;1.50;;
14768;SDS011;7476;49.404;11.152;2023-10-31T03:29:10;1.60;;;1.50;;
14768;SDS011;7476;49.404;11.152;2023-10-31T03:31:38;1.73;;;1.40;;
14768;SDS011;7476;49.404;11.152;2023-10-31T03:34:05;1.60;;;1.50;;
14768;SDS011;7476;49.404;11.152;2023-10-31T03:36:31;1.37;;;1.27;;
14768;SDS011;7476;49.404;11.152;2023-10-31T03:38:58;3.20;;;1.50;;
14768;SDS011;7476;49.404;11.152;2023-10-31T03:41:25;1.70;;;1.50;;
14768;SDS011;7476;49.404;11.152;2023-10-31T03:43:51;1.47;;;1.37;;
14768;SDS011;7476;49.404;11.152;2023-10-31T03:46:18;3.47;;;1.50;;
14768;SDS011;7476;49.404;11.152;2023-10-31T03:48:46;2.30;;;1.40;;
14768;SDS011;7476;49.404;11.152;2023-10-31T03:51:13;2.90;;;1.60;;
14768;SDS011;7476;49.404;11.152;2023-10-31T03:53:39;1.63;;;1.50;;
14768;SDS011;7476;49.404;11.152;2023-10-31T03:56:06;3.07;;;1.40;;
14768;SDS011;7476;49.404;11.152;2023-10-31T03:58:33;1.50;;;1.40;;
14768;SDS011;7476;49.404;11.152;2023-10-31T04:00:59;1.37;;;1.20;;
14768;SDS011;7476;49.404;11.152;2023-10-31T04:03:26;1.50;;;1.40;;
14768;SDS011;7476;49.404;11.152;2023-10-31T04:05:54;1.23;;;1.13;;
14768;SDS011;7476;49.404;11.152;2023-10-31T04:08:21;2.10;;;1.20;;
14768;SDS011;7476;49.404;11.152;2023-10-31T04:10:47;2.47;;;1.47;;
14768;SDS011;7476;49.404;11.152;2023-10-31T04:13:14;2.60;;;1.30;;
14768;SDS011;7476;49.404;11.152;2023-10-31T04:15:41;1.60;;;1.50;;
14768;SDS011;7476;49.404;11.152;2023-10-31T04:18:07;2.47;;;1.60;;
14768;SDS011;7476;49.404;11.152;2023-10-31T04:20:34;1.73;;;1.60;;
14768;SDS011;7476;49.404;11.152;2023-10-31T04:23:02;1.97;;;1.60;;
14768;SDS011;7476;49.404;11.152;2023-10-31T04:25:30;1.70;;;1.60;;
14768;SDS011;7476;49.404;11.152;2023-10-31T04:27:57;1.80;;;1.70;;
14768;SDS011;7476;49.404;11.152;2023-10-31T04:30:24;2.13;;;1.80;;
14768;SDS011;7476;49.404;11.152;2023-10-31T04:32:51;1.83;;;1.73;;
14768;SDS011;7476;49.404;11.152;2023-10-31T04:35:18;1.87;;;1.77;;
14768;SDS011;7476;49.404;11.152;2023-10-31T04:37:44;2.57;;;1.73;;
14768;SDS011;7476;49.404;11.152;2023-10-31T04:40:13;2.40;;;1.83;;
14768;SDS011;7476;49.404;11.152;2023-10-31T04:42:40;1.70;;;1.60;;
14768;SDS011;7476;49.404;11.152;2023-10-31T04:45:07;3.13;;;1.80;;
14768;SDS011;7476;49.404;11.152;2023-10-31T04:47:34;1.87;;;1.73;;
14768;SDS011;7476;49.404;11.152;2023-10-31T04:50:01;2.00;;;1.80;;
14768;SDS011;7476;49.404;11.152;2023-10-31T04:52:27;2.40;;;1.60;;
14768;SDS011;7476;49.404;11.152;2023-10-31T04:54:54;1.57;;;1.47;;
14768;SDS011;7476;49.404;11.152;2023-10-31T04:57:22;2.53;;;1.53;;
14768;SDS011;7476;49.404;11.152;2023-10-31T04:59:49;2.10;;;1.50;;
14768;SDS011;7476;49.404;11.152;2023-10-31T05:02:17;1.70;;;1.50;;
14768;SDS011;7476;49.404;11.152;2023-10-31T05:04:44;2.70;;;1.50;;
14768;SDS011;7476;49.404;11.152;2023-10-31T05:07:10;1.77;;;1.50;;
14768;SDS011;7476;49.404;11.152;2023-10-31T05:09:37;1.87;;;1.30;;
14768;SDS011;7476;49.404;11.152;2023-10-31T05:12:06;2.80;;;1.30;;
14768;SDS011;7476;49.404;11.152;2023-10-31T05:14:35;2.03;;;1.60;;
14768;SDS011;7476;49.404;11.152;2023-10-31T05:17:01;3.80;;;1.50;;
14768;SDS011;7476;49.404;11.152;2023-10-31T05:19:29;1.70;;;1.37;;
14768;SDS011;7476;49.404;11.152;2023-10-31T05:21:56;1.60;;;1.50;;
14768;SDS011;7476;49.404;11.152;2023-10-31T05:24:22;1.43;;;1.33;;
14768;SDS011;7476;49.404;11.152;2023-10-31T05:26:49;3.03;;;1.70;;
14768;SDS011;7476;49.404;11.152;2023-10-31T05:29:16;2.17;;;1.40;;
14768;SDS011;7476;49.404;11.152;2023-10-31T05:31:44;3.27;;;1.60;;
14768;SDS011;7476;49.404;11.152;2023-10-31T05:34:10;1.50;;;1.40;;
14768;SDS011;7476;49.404;11.152;2023-10-31T05:36:37;2.60;;;1.40;;
14768;SDS011;7476;49.404;11.152;2023-10-31T05:39:04;1.43;;;1.30;;
14768;SDS011;7476;49.404;11.152;2023-10-31T05:41:33;1.77;;;1.43;;
14768;SDS011;7476;49.404;11.152;2023-10-31T05:44:00;2.30;;;1.60;;
14768;SDS011;7476;49.404;11.152;2023-10-31T05:46:27;1.33;;;1.23;;
14768;SDS011;7476;49.404;11.152;2023-10-31T05:48:55;1.60;;;1.50;;
14768;SDS011;7476;49.404;11.152;2023-10-31T05:51:22;1.80;;;1.60;;
14768;SDS011;7476;49.404;11.152;2023-10-31T05:53:50;3.37;;;1.30;;
14768;SDS011;7476;49.404;11.152;2023-10-31T05:56:17;1.63;;;1.30;;
14768;SDS011;7476;49.404;11.152;2023-10-31T05:58:43;2.90;;;1.40;;
14768;SDS011;7476;49.404;11.152;2023-10-31T06:01:10;2.37;;;1.30;;
14768;SDS011;7476;49.404;11.152;2023-10-31T06:03:37;1.47;;;1.37;;
14768;SDS011;7476;49.404;11.152;2023-10-31T06:06:08;2.53;;;1.27;;
14768;SDS011;7476;49.404;11.152;2023-10-31T06:08:35;1.80;;;1.13;;
14768;SDS011;7476;49.404;11.152;2023-10-31T06:11:02;1.20;;;1.10;;
14768;SDS011;7476;49.404;11.152;2023-10-31T06:13:30;3.20;;;1.67;;
14768;SDS011;7476;49.404;11.152;2023-10-31T06:15:57;2.00;;;1.33;;
14768;SDS011;7476;49.404;11.152;2023-10-31T06:18:24;2.73;;;1.27;;
14768;SDS011;7476;49.404;11.152;2023-10-31T06:20:51;2.57;;;1.50;;
14768;SDS011;7476;49.404;11.152;2023-10-31T06:23:19;1.87;;;1.30;;
14768;SDS011;7476;49.404;11.152;2023-10-31T06:25:46;3.27;;;1.30;;
14768;SDS011;7476;49.404;11.152;2023-10-31T06:28:13;1.50;;;1.17;;
14768;SDS011;7476;49.404;11.152;2023-10-31T06:30:39;2.70;;;1.30;;
14768;SDS011;7476;49.404;11.152;2023-10-31T06:33:06;1.20;;;1.10;;
14768;SDS011;7476;49.404;11.152;2023-10-31T06:35:33;1.43;;;1.20;;
14768;SDS011;7476;49.404;11.152;2023-10-31T06:38:00;2.63;;;1.40;;
14768;SDS011;7476;49.404;11.152;2023-10-31T06:40:29;1.80;;;1.27;;
14768;SDS011;7476;49.404;11.152;2023-10-31T06:42:56;1.30;;;1.00;;
14768;SDS011;7476;49.404;11.152;2023-10-31T06:45:22;1.10;;;1.00;;
14768;SDS011;7476;49.404;11.152;2023-10-31T06:47:49;1.20;;;1.00;;
14768;SDS011;7476;49.404;11.152;2023-10-31T06:50:15;2.27;;;1.30;;
14768;SDS011;7476;49.404;11.152;2023-10-31T06:52:42;1.10;;;1.00;;
14768;SDS011;7476;49.404;11.152;2023-10-31T06:55:09;1.93;;;1.30;;
14768;SDS011;7476;49.404;11.152;2023-10-31T06:57:37;1.27;;;1.00;;
14768;SDS011;7476;49.404;11.152;2023-10-31T07:00:04;3.17;;;1.10;;
14768;SDS011;7476;49.404;11.152;2023-10-31T07:02:33;2.20;;;1.10;;
14768;SDS011;7476;49.404;11.152;2023-10-31T07:05:01;2.53;;;1.10;;
14768;SDS011;7476;49.404;11.152;2023-10-31T07:07:28;1.70;;;1.30;;
14768;SDS011;7476;49.404;11.152;2023-10-31T07:09:54;1.20;;;1.10;;
14768;SDS011;7476;49.404;11.152;2023-10-31T07:12:21;1.33;;;1.00;;
14768;SDS011;7476;49.404;11.152;2023-10-31T07:14:49;2.60;;;0.93;;
14768;SDS011;7476;49.404;11.152;2023-10-31T07:17:16;2.37;;;1.30;;
14768;SDS011;7476;49.404;11.152;2023-10-31T07:19:42;1.67;;;1.03;;
14768;SDS011;7476;49.404;11.152;2023-10-31T07:22:09;2.40;;;1.20;;
14768;SDS011;7476;49.404;11.152;2023-10-31T07:24:36;2.30;;;1.30;;
14768;SDS011;7476;49.404;11.152;2023-10-31T07:27:03;1.47;;;1.10;;
14768;SDS011;7476;49.404;11.152;2023-10-31T07:29:29;1.00;;;1.00;;
14768;SDS011;7476;49.404;11.152;2023-10-31T07:31:57;3.07;;;1.00;;
14768;SDS011;7476;49.404;11.152;2023-10-31T07:34:24;1.40;;;1.27;;
14768;SDS011;7476;49.404;11.152;2023-10-31T07:36:51;3.70;;;1.10;;
14768;SDS011;7476;49.404;11.152;2023-10-31T07:39:17;1.90;;;1.13;;
14768;SDS011;7476;49.404;11.152;2023-10-31T07:41:44;1.70;;;1.10;;
14768;SDS011;7476;49.404;11.152;2023-10-31T07:44:11;1.20;;;1.10;;
14768;SDS011;7476;49.404;11.152;2023-10-31T07:46:38;1.00;;;0.90;;
14768;SDS011;7476;49.404;11.152;2023-10-31T07:49:06;4.77;;;1.00;;
14768;SDS011;7476;49.404;11.152;2023-10-31T07:51:32;1.53;;;1.07;;
14768;SDS011;7476;49.404;11.152;2023-10-31T07:53:59;2.33;;;0.90;;
14768;SDS011;7476;49.404;11.152;2023-10-31T07:56:26;2.07;;;1.10;;
14768;SDS011;7476;49.404;11.152;2023-10-31T07:58:53;2.43;;;0.97;;
14768;SDS011;7476;49.404;11.152;2023-10-31T08:01:20;1.83;;;1.10;;
14768;SDS011;7476;49.404;11.152;2023-10-31T08:03:47;4.00;;;1.10;;
14768;SDS011;7476;49.404;11.152;2023-10-31T08:06:16;4.07;;;1.10;;
14768;SDS011;7476;49.404;11.152;2023-10-31T08:08:42;1.40;;;0.90;;
14768;SDS011;7476;49.404;11.152;2023-10-31T08:11:09;1.17;;;1.00;;
14768;SDS011;7476;49.404;11.152;2023-10-31T08:13:36;1.40;;;1.13;;
14768;SDS011;7476;49.404;11.152;2023-10-31T08:16:04;2.07;;;1.13;;
14768;SDS011;7476;49.404;11.152;2023-10-31T08:18:32;2.23;;;1.00;;
14768;SDS011;7476;49.404;11.152;2023-10-31T08:20:59;2.07;;;1.20;;
14768;SDS011;7476;49.404;11.152;2023-10-31T08:23:27;4.20;;;1.00;;
14768;SDS011;7476;49.404;11.152;2023-10-31T08:25:54;1.13;;;1.03;;
14768;SDS011;7476;49.404;11.152;2023-10-31T08:28:21;3.03;;;1.07;;
14768;SDS011;7476;49.404;11.152;2023-10-31T08:30:48;1.13;;;1.00;;
14768;SDS011;7476;49.404;11.152;2023-10-31T08:33:15;1.97;;;1.10;;
14768;SDS011;7476;49.404;11.152;2023-10-31T08:35:41;1.10;;;0.90;;
14768;SDS011;7476;49.404;11.152;2023-10-31T08:38:08;1.53;;;0.97;;
14768;SDS011;7476;49.404;11.152;2023-10-31T08:40:36;1.53;;;1.10;;
14768;SDS011;7476;49.404;11.152;2023-10-31T08:43:03;1.20;;;1.10;;
14768;SDS011;7476;49.404;11.152;2023-10-31T08:45:31;1.37;;;1.00;;
14768;SDS011;7476;49.404;11.152;2023-10-31T08:47:58;1.10;;;0.93;;
14768;SDS011;7476;49.404;11.152;2023-10-31T08:50:24;2.10;;;1.00;;
14768;SDS011;7476;49.404;11.152;2023-10-31T08:52:51;1.63;;;0.97;;
14768;SDS011;7476;49.404;11.152;2023-10-31T08:55:18;2.70;;;1.07;;
14768;SDS011;7476;49.404;11.152;2023-10-31T08:57:46;1.00;;;1.00;;
14768;SDS011;7476;49.404;11.152;2023-10-31T09:00:13;1.10;;;1.00;;
14768;SDS011;7476;49.404;11.152;2023-10-31T09:02:40;1.10;;;1.00;;
14768;SDS011;7476;49.404;11.152;2023-10-31T09:05:08;4.00;;;1.50;;
14768;SDS011;7476;49.404;11.152;2023-10-31T09:07:34;0.97;;;0.87;;
14768;SDS011;7476;49.404;11.152;2023-10-31T09:10:01;2.90;;;1.30;;
14768;SDS011;7476;49.404;11.152;2023-10-31T09:12:30;1.97;;;1.00;;
14768;SDS011;7476;49.404;11.152;2023-10-31T09:14:58;1.60;;;0.90;;
14768;SDS011;7476;49.404;11.152;2023-10-31T09:17:24;2.07;;;1.10;;
14768;SDS011;7476;49.404;11.152;2023-10-31T09:19:51;1.63;;;0.97;;
14768;SDS011;7476;49.404;11.152;2023-10-31T09:22:18;1.50;;;1.00;;
14768;SDS011;7476;49.404;11.152;2023-10-31T09:24:45;1.20;;;1.10;;
14768;SDS011;7476;49.404;11.152;2023-10-31T09:27:12;1.20;;;1.10;;
14768;SDS011;7476;49.404;11.152;2023-10-31T09:29:38;1.50;;;1.10;;
14768;SDS011;7476;49.404;11.152;2023-10-31T09:32:07;1.23;;;1.13;;
14768;SDS011;7476;49.404;11.152;2023-10-31T09:34:33;1.07;;;1.00;;
14768;SDS011;7476;49.404;11.152;2023-10-31T09:37:00;2.60;;;1.10;;
14768;SDS011;7476;49.404;11.152;2023-10-31T09:39:27;1.30;;;1.03;;
14768;SDS011;7476;49.404;11.152;2023-10-31T09:41:54;1.80;;;1.20;;
14768;SDS011;7476;49.404;11.152;2023-10-31T09:44:20;1.20;;;1.10;;
14768;SDS011;7476;49.404;11.152;2023-10-31T09:46:47;2.03;;;1.20;;
14768;SDS011;7476;49.404;11.152;2023-10-31T09:49:15;1.70;;;1.30;;
14768;SDS011;7476;49.404;11.152;2023-10-31T09:51:43;1.07;;;1.00;;
14768;SDS011;7476;49.404;11.152;2023-10-31T09:54:09;1.87;;;1.00;;
14768;SDS011;7476;49.404;11.152;2023-10-31T09:56:40;1.20;;;1.10;;
14768;SDS011;7476;49.404;11.152;2023-10-31T09:59:08;3.20;;;1.10;;
14768;SDS011;7476;49.404;11.152;2023-10-31T10:01:35;1.67;;;1.00;;
14768;SDS011;7476;49.404;11.152;2023-10-31T10:04:02;1.73;;;1.00;;
14768;SDS011;7476;49.404;11.152;2023-10-31T10:06:30;2.13;;;1.13;;
14768;SDS011;7476;49.404;11.152;2023-10-31T10:08:58;1.37;;;1.10;;
14768;SDS011;7476;49.404;11.152;2023-10-31T10:11:25;1.10;;;1.00;;
14768;SDS011;7476;49.404;11.152;2023-10-31T10:13:52;0.90;;;0.90;;
14768;SDS011;7476;49.404;11.152;2023-10-31T10:16:29;3.10;;;1.20;;
14768;SDS011;7476;49.404;11.152;2023-10-31T10:18:57;1.30;;;1.10;;
14768;SDS011;7476;49.404;11.152;2023-10-31T10:21:23;2.27;;;1.20;;
14768;SDS011;7476;49.404;11.152;2023-10-31T10:23:52;1.33;;;1.17;;
14768;SDS011;7476;49.404;11.152;2023-10-31T10:26:19;1.73;;;1.00;;
14768;SDS011;7476;49.404;11.152;2023-10-31T10:28:50;1.80;;;1.40;;
14768;SDS011;7476;49.404;11.152;2023-10-31T10:31:17;2.60;;;1.17;;
14768;SDS011;7476;49.404;11.152;2023-10-31T10:33:44;1.47;;;1.17;;
14768;SDS011;7476;49.404;11.152;2023-10-31T10:36:12;3.00;;;1.30;;
14768;SDS011;7476;49.404;11.152;2023-10-31T10:38:42;1.27;;;1.10;;
14768;SDS011;7476;49.404;11.152;2023-10-31T10:41:14;1.37;;;1.00;;
14768;SDS011;7476;49.404;11.152;2023-10-31T10:43:45;1.03;;;0.93;;
14768;SDS011;7476;49.404;11.152;2023-10-31T10:46:15;3.63;;;1.30;;
14768;SDS011;7476;49.404;11.152;2023-10-31T10:48:46;1.83;;;1.10;;
14768;SDS011;7476;49.404;11.152;2023-10-31T10:51:13;1.40;;;1.20;;
14768;SDS011;7476;49.404;11.152;2023-10-31T10:53:48;1.67;;;1.10;;
14768;SDS011;7476;49.404;11.152;2023-10-31T10:56:19;1.13;;;1.03;;
14768;SDS011;7476;49.404;11.152;2023-10-31T10:58:52;1.93;;;1.00;;
14768;SDS011;7476;49.404;11.152;2023-10-31T11:01:26;1.23;;;1.13;;
14768;SDS011;7476;49.404;11.152;2023-10-31T11:03:53;3.07;;;1.30;;
14768;SDS011;7476;49.404;11.152;2023-10-31T11:06:21;2.10;;;1.10;;
14768;SDS011;7476;49.404;11.152;2023-10-31T11:08:48;1.40;;;1.03;;
14768;SDS011;7476;49.404;11.152;2023-10-31T11:11:17;1.20;;;1.03;;
14768;SDS011;7476;49.404;11.152;2023-10-31T11:13:45;1.93;;;1.07;;
14768;SDS011;7476;49.404;11.152;2023-10-31T11:16:13;1.20;;;1.10;;
14768;SDS011;7476;49.404;11.152;2023-10-31T11:18:43;2.03;;;1.20;;
14768;SDS011;7476;49.404;11.152;2023-10-31T11:21:10;2.33;;;1.07;;
14768;SDS011;7476;49.404;11.152;2023-10-31T11:23:37;1.53;;;1.10;;
14768;SDS011;7476;49.404;11.152;2023-10-31T11:26:06;3.57;;;1.10;;
14768;SDS011;7476;49.404;11.152;2023-10-31T11:28:34;2.50;;;1.20;;
14768;SDS011;7476;49.404;11.152;2023-10-31T11:31:02;2.10;;;1.10;;
14768;SDS011;7476;49.404;11.152;2023-10-31T11:33:29;3.57;;;1.13;;
14768;SDS011;7476;49.404;11.152;2023-10-31T11:35:59;1.47;;;1.30;;
14768;SDS011;7476;49.404;11.152;2023-10-31T11:38:34;1.90;;;1.03;;
14768;SDS011;7476;49.404;11.152;2023-10-31T11:41:01;1.73;;;1.33;;
14768;SDS011;7476;49.404;11.152;2023-10-31T11:43:36;2.97;;;1.17;;
14768;SDS011;7476;49.404;11.152;2023-10-31T11:46:17;1.57;;;1.07;;
14768;SDS011;7476;49.404;11.152;2023-10-31T11:48:45;2.37;;;1.20;;
14768;SDS011;7476;49.404;11.152;2023-10-31T11:51:13;2.07;;;1.10;;
14768;SDS011;7476;49.404;11.152;2023-10-31T11:53:39;3.57;;;1.03;;
14768;SDS011;7476;49.404;11.152;2023-10-31T11:56:08;4.77;;;1.33;;
14768;SDS011;7476;49.404;11.152;2023-10-31T11:58:37;2.03;;;1.00;;
14768;SDS011;7476;49.404;11.152;2023-10-31T12:01:05;2.50;;;1.30;;
14768;SDS011;7476;49.404;11.152;2023-10-31T12:03:36;1.80;;;1.10;;
14768;SDS011;7476;49.404;11.152;2023-10-31T12:06:04;5.27;;;1.27;;
14768;SDS011;7476;49.404;11.152;2023-10-31T12:08:31;1.43;;;1.10;;
14768;SDS011;7476;49.404;11.152;2023-10-31T12:11:02;1.70;;;1.30;;
14768;SDS011;7476;49.404;11.152;2023-10-31T12:13:30;2.77;;;1.20;;
14768;SDS011;7476;49.404;11.152;2023-10-31T12:15:58;3.40;;;1.40;;
14768;SDS011;7476;49.404;11.152;2023-10-31T12:18:26;3.47;;;1.40;;
14768;SDS011;7476;49.404;11.152;2023-10-31T12:20:53;3.97;;;1.50;;
14768;SDS011;7476;49.404;11.152;2023-10-31T12:23:21;2.47;;;1.40;;
14768;SDS011;7476;49.404;11.152;2023-10-31T12:25:47;2.13;;;1.10;;
14768;SDS011;7476;49.404;11.152;2023-10-31T12:28:18;2.40;;;1.30;;
14768;SDS011;7476;49.404;11.152;2023-10-31T12:30:45;2.03;;;1.30;;
14768;SDS011;7476;49.404;11.152;2023-10-31T12:33:14;2.43;;;1.70;;
14768;SDS011;7476;49.404;11.152;2023-10-31T12:35:41;4.60;;;1.63;;
14768;SDS011;7476;49.404;11.152;2023-10-31T12:38:09;4.30;;;1.87;;
14768;SDS011;7476;49.404;11.152;2023-10-31T12:40:37;2.27;;;1.60;;
14768;SDS011;7476;49.404;11.152;2023-10-31T12:43:04;2.70;;;1.40;;
14768;SDS011;7476;49.404;11.152;2023-10-31T12:45:31;4.00;;;1.70;;
14768;SDS011;7476;49.404;11.152;2023-10-31T12:48:00;2.60;;;1.50;;
14768;SDS011;7476;49.404;11.152;2023-10-31T12:50:30;2.00;;;1.30;;
14768;SDS011;7476;49.404;11.152;2023-10-31T12:52:57;3.30;;;1.40;;
14768;SDS011;7476;49.404;11.152;2023-10-31T12:55:25;2.13;;;1.27;;
14768;SDS011;7476;49.404;11.152;2023-10-31T12:57:53;3.73;;;1.50;;
14768;SDS011;7476;49.404;11.152;2023-10-31T13:00:21;3.20;;;1.53;;
14768;SDS011;7476;49.404;11.152;2023-10-31T13:02:52;2.83;;;1.57;;
14768;SDS011;7476;49.404;11.152;2023-10-31T13:05:25;2.77;;;1.40;;
14768;SDS011;7476;49.404;11.152;2023-10-31T13:07:55;3.47;;;1.63;;
14768;SDS011;7476;49.404;11.152;2023-10-31T13:10:22;3.00;;;1.23;;
14768;SDS011;7476;49.404;11.152;2023-10-31T13:12:50;3.10;;;1.50;;
14768;SDS011;7476;49.404;11.152;2023-10-31T13:15:18;1.80;;;1.50;;
14768;SDS011;7476;49.404;11.152;2023-10-31T13:17:47;2.37;;;1.23;;
14768;SDS011;7476;49.404;11.152;2023-10-31T13:20:15;1.70;;;1.20;;
14768;SDS011;7476;49.404;11.152;2023-10-31T13:22:43;2.00;;;1.43;;
14768;SDS011;7476;49.404;11.152;2023-10-31T13:25:12;2.93;;;1.40;;
14768;SDS011;7476;49.404;11.152;2023-10-31T13:27:40;3.27;;;1.20;;
14768;SDS011;7476;49.404;11.152;2023-10-31T13:30:08;2.47;;;1.33;;
14768;SDS011;7476;49.404;11.152;2023-10-31T13:32:36;2.73;;;1.40;;
14768;SDS011;7476;49.404;11.152;2023-10-31T13:35:03;2.23;;;1.20;;
14768;SDS011;7476;49.404;11.152;2023-10-31T13:37:30;3.57;;;1.30;;
14768;SDS011;7476;49.404;11.152;2023-10-31T13:39:57;3.07;;;1.47;;
14768;SDS011;7476;49.404;11.152;2023-10-31T13:42:25;3.30;;;1.37;;
14768;SDS011;7476;49.404;11.152;2023-10-31T13:44:53;3.17;;;1.13;;
14768;SDS011;7476;49.404;11.152;2023-10-31T13:47:20;2.90;;;1.17;;
14768;SDS011;7476;49.404;11.152;2023-10-31T13:49:46;2.47;;;1.10;;
14768;SDS011;7476;49.404;11.152;2023-10-31T13:52:13;3.20;;;1.20;;
14768;SDS011;7476;49.404;11.152;2023-10-31T13:54:40;2.17;;;1.10;;
14768;SDS011;7476;49.404;11.152;2023-10-31T13:57:06;2.67;;;1.17;;
14768;SDS011;7476;49.404;11.152;2023-10-31T13:59:35;3.53;;;1.40;;
14768;SDS011;7476;49.404;11.152;2023-10-31T14:02:01;1.87;;;1.07;;
14768;SDS011;7476;49.404;11.152;2023-10-31T14:04:28;2.53;;;1.30;;
14768;SDS011;7476;49.404;11.152;2023-10-31T14:06:55;3.30;;;1.40;;
14768;SDS011;7476;49.404;11.152;2023-10-31T14:09:22;2.40;;;1.10;;
14768;SDS011;7476;49.404;11.152;2023-10-31T14:11:49;3.73;;;1.27;;
14768;SDS011;7476;49.404;11.152;2023-10-31T14:14:16;3.07;;;1.20;;
14768;SDS011;7476;49.404;11.152;2023-10-31T14:16:46;2.17;;;1.30;;
14768;SDS011;7476;49.404;11.152;2023-10-31T14:19:14;2.13;;;1.10;;
14768;SDS011;7476;49.404;11.152;2023-10-31T14:21:42;2.63;;;1.13;;
14768;SDS011;7476;49.404;11.152;2023-10-31T14:24:09;1.87;;;1.30;;
14768;SDS011;7476;49.404;11.152;2023-10-31T14:26:36;2.73;;;1.20;;
14768;SDS011;7476;49.404;11.152;2023-10-31T14:29:03;1.83;;;1.10;;
14768;SDS011;7476;49.404;11.152;2023-10-31T14:31:30;2.47;;;1.23;;
14768;SDS011;7476;49.404;11.152;2023-10-31T14:33:58;3.97;;;1.17;;
14768;SDS011;7476;49.404;11.152;2023-10-31T14:36:26;3.37;;;1.60;;
14768;SDS011;7476;49.404;11.152;2023-10-31T14:38:52;3.47;;;1.50;;
14768;SDS011;7476;49.404;11.152;2023-10-31T14:41:19;4.13;;;1.33;;
14768;SDS011;7476;49.404;11.152;2023-10-31T14:43:46;1.50;;;1.20;;
14768;SDS011;7476;49.404;11.152;2023-10-31T14:46:12;4.00;;;1.30;;
14768;SDS011;7476;49.404;11.152;2023-10-31T14:48:39;3.80;;;1.40;;